sensor_id;sensor_type;location;lat;lon;timestamp;pressure;altitude;pressure_sealevel;temperature;humidity
54262;BME280;40174;52.364;6.452;2023-04-03T00:02:20;102851.81;;;3.26;98.66
54262;BME280;40174;52.364;6.452;2023-04-03T00:04:47;102854.44;;;3.25;98.90
54262;BME280;40174;52.364;6.452;2023-04-03T00:07:13;102855.41;;;3.21;99.22
54262;BME280;40174;52.364;6.452;2023-04-03T00:09:41;102851.13;;;3.17;99.51
54262;BME280;40174;52.364;6.452;2023-04-03T00:12:07;102855.44;;;3.19;99.97
54262;BME280;40174;52.364;6.452;2023-04-03T00:14:34;102851.97;;;3.19;100.00
54262;BME280;40174;52.364;6.452;2023-04-03T00:17:00;102853.81;;;3.12;100.00
54262;BME280;40174;52.364;6.452;2023-04-03T00:19:27;102860.75;;;3.13;100.00
54262;BME280;40174;52.364;6.452;2023-04-03T00:21:53;102855.53;;;3.11;100.00
54262;BME280;40174;52.364;6.452;2023-04-03T00:24:20;102864.28;;;3.09;100.00
54262;BME280;40174;52.364;6.452;2023-04-03T00:26:48;102856.59;;;3.03;100.00
54262;BME280;40174;52.364;6.452;2023-04-03T00:29:15;102865.34;;;2.99;100.00
54262;BME280;40174;52.364;6.452;2023-04-03T00:31:41;102860.13;;;2.97;100.00
54262;BME280;40174;52.364;6.452;2023-04-03T00:34:07;102871.50;;;2.96;100.00
54262;BME280;40174;52.364;6.452;2023-04-03T00:36:34;102873.28;;;2.91;100.00
54262;BME280;40174;52.364;6.452;2023-04-03T00:39:00;102872.44;;;2.89;100.00
54262;BME280;40174;52.364;6.452;2023-04-03T00:41:27;102866.38;;;2.88;100.00
54262;BME280;40174;52.364;6.452;2023-04-03T00:43:55;102863.75;;;2.88;100.00
54262;BME280;40174;52.364;6.452;2023-04-03T00:46:22;102869.88;;;2.87;100.00
54262;BME280;40174;52.364;6.452;2023-04-03T00:48:49;102863.84;;;2.82;100.00
54262;BME280;40174;52.364;6.452;2023-04-03T00:51:16;102873.44;;;2.80;100.00
54262;BME280;40174;52.364;6.452;2023-04-03T00:53:46;102868.28;;;2.79;100.00
54262;BME280;40174;52.364;6.452;2023-04-03T00:56:14;102875.34;;;2.72;100.00
54262;BME280;40174;52.364;6.452;2023-04-03T00:58:43;102883.19;;;2.70;100.00
54262;BME280;40174;52.364;6.452;2023-04-03T01:01:12;102874.56;;;2.65;100.00
54262;BME280;40174;52.364;6.452;2023-04-03T01:03:41;102876.31;;;2.65;100.00
54262;BME280;40174;52.364;6.452;2023-04-03T01:06:08;102876.34;;;2.62;100.00
54262;BME280;40174;52.364;6.452;2023-04-03T01:08:34;102875.56;;;2.55;100.00
54262;BME280;40174;52.364;6.452;2023-04-03T01:11:01;102874.72;;;2.55;100.00
54262;BME280;40174;52.364;6.452;2023-04-03T01:13:29;102879.94;;;2.53;100.00
54262;BME280;40174;52.364;6.452;2023-04-03T01:15:56;102876.53;;;2.49;100.00
54262;BME280;40174;52.364;6.452;2023-04-03T01:18:24;102883.50;;;2.49;100.00
54262;BME280;40174;52.364;6.452;2023-04-03T01:23:44;102887.91;;;2.44;100.00
54262;BME280;40174;52.364;6.452;2023-04-03T01:26:16;102888.00;;;2.38;100.00
54262;BME280;40174;52.364;6.452;2023-04-03T01:28:42;102888.88;;;2.35;100.00
54262;BME280;40174;52.364;6.452;2023-04-03T01:31:12;102885.47;;;2.32;100.00
54262;BME280;40174;52.364;6.452;2023-04-03T01:33:44;102882.91;;;2.27;100.00
54262;BME280;40174;52.364;6.452;2023-04-03T01:36:13;102893.41;;;2.22;100.00
54262;BME280;40174;52.364;6.452;2023-04-03T01:38:40;102896.94;;;2.20;100.00
54262;BME280;40174;52.364;6.452;2023-04-03T01:41:07;102902.16;;;2.18;100.00
54262;BME280;40174;52.364;6.452;2023-04-03T01:43:34;102899.56;;;2.15;100.00
54262;BME280;40174;52.364;6.452;2023-04-03T01:46:00;102906.53;;;2.18;100.00
54262;BME280;40174;52.364;6.452;2023-04-03T01:48:27;102896.09;;;2.18;100.00
54262;BME280;40174;52.364;6.452;2023-04-03T01:50:55;102897.00;;;2.12;100.00
54262;BME280;40174;52.364;6.452;2023-04-03T01:53:21;102897.00;;;2.12;100.00
54262;BME280;40174;52.364;6.452;2023-04-03T01:55:48;102901.44;;;2.05;100.00
54262;BME280;40174;52.364;6.452;2023-04-03T01:58:14;102899.72;;;2.01;100.00
54262;BME280;40174;52.364;6.452;2023-04-03T02:00:41;102903.25;;;2.00;100.00
54262;BME280;40174;52.364;6.452;2023-04-03T02:03:07;102902.38;;;2.00;100.00
54262;BME280;40174;52.364;6.452;2023-04-03T02:05:34;102911.97;;;1.98;100.00
54262;BME280;40174;52.364;6.452;2023-04-03T02:08:02;102899.84;;;1.94;100.00
54262;BME280;40174;52.364;6.452;2023-04-03T02:10:28;102905.06;;;1.92;100.00
54262;BME280;40174;52.364;6.452;2023-04-03T02:12:55;102912.03;;;1.92;100.00
54262;BME280;40174;52.364;6.452;2023-04-03T02:15:23;102915.50;;;1.92;100.00
54262;BME280;40174;52.364;6.452;2023-04-03T02:17:50;102914.63;;;1.92;100.00
54262;BME280;40174;52.364;6.452;2023-04-03T02:20:17;102913.78;;;1.90;100.00
54262;BME280;40174;52.364;6.452;2023-04-03T02:22:44;102918.19;;;1.84;100.00
54262;BME280;40174;52.364;6.452;2023-04-03T02:25:12;102908.66;;;1.79;100.00
54262;BME280;40174;52.364;6.452;2023-04-03T02:27:39;102917.38;;;1.78;100.00
54262;BME280;40174;52.364;6.452;2023-04-03T02:30:06;102921.78;;;1.73;100.00
54262;BME280;40174;52.364;6.452;2023-04-03T02:32:34;102920.09;;;1.65;100.00
54262;BME280;40174;52.364;6.452;2023-04-03T02:35:01;102921.00;;;1.61;100.00
54262;BME280;40174;52.364;6.452;2023-04-03T02:37:28;102914.06;;;1.60;100.00
54262;BME280;40174;52.364;6.452;2023-04-03T02:39:55;102926.22;;;1.63;100.00
54262;BME280;40174;52.364;6.452;2023-04-03T02:42:23;102923.63;;;1.61;100.00
54262;BME280;40174;52.364;6.452;2023-04-03T02:44:51;102921.03;;;1.57;100.00
54262;BME280;40174;52.364;6.452;2023-04-03T02:47:17;102925.44;;;1.55;100.00
54262;BME280;40174;52.364;6.452;2023-04-03T02:49:44;102932.41;;;1.51;100.00
54262;BME280;40174;52.364;6.452;2023-04-03T02:52:11;102919.38;;;1.50;100.00
54262;BME280;40174;52.364;6.452;2023-04-03T02:54:37;102922.03;;;1.48;100.00
54262;BME280;40174;52.364;6.452;2023-04-03T02:57:06;102926.31;;;1.52;100.00
54262;BME280;40174;52.364;6.452;2023-04-03T02:59:35;102921.13;;;1.51;100.00
54262;BME280;40174;52.364;6.452;2023-04-03T03:02:02;102928.09;;;1.49;100.00
54262;BME280;40174;52.364;6.452;2023-04-03T03:04:28;102930.66;;;1.50;100.00
54262;BME280;40174;52.364;6.452;2023-04-03T03:06:55;102932.44;;;1.48;100.00
54262;BME280;40174;52.364;6.452;2023-04-03T03:09:22;102929.00;;;1.44;100.00
54262;BME280;40174;52.364;6.452;2023-04-03T03:11:48;102927.28;;;1.42;100.00
54262;BME280;40174;52.364;6.452;2023-04-03T03:14:15;102933.38;;;1.39;100.00
54262;BME280;40174;52.364;6.452;2023-04-03T03:16:43;102932.50;;;1.39;100.00
54262;BME280;40174;52.364;6.452;2023-04-03T03:19:10;102935.09;;;1.39;100.00
54262;BME280;40174;52.364;6.452;2023-04-03T03:21:36;102930.78;;;1.36;100.00
54262;BME280;40174;52.364;6.452;2023-04-03T03:24:03;102932.53;;;1.34;100.00
54262;BME280;40174;52.364;6.452;2023-04-03T03:26:29;102930.88;;;1.27;100.00
54262;BME280;40174;52.364;6.452;2023-04-03T03:28:56;102935.22;;;1.27;100.00
54262;BME280;40174;52.364;6.452;2023-04-03T03:31:22;102936.97;;;1.24;100.00
54262;BME280;40174;52.364;6.452;2023-04-03T03:33:50;102940.44;;;1.25;100.00
54262;BME280;40174;52.364;6.452;2023-04-03T03:36:18;102933.53;;;1.18;100.00
54262;BME280;40174;52.364;6.452;2023-04-03T03:38:44;102947.50;;;1.12;100.00
54262;BME280;40174;52.364;6.452;2023-04-03T03:41:11;102944.88;;;1.11;100.00
54262;BME280;40174;52.364;6.452;2023-04-03T03:43:38;102937.97;;;1.07;100.00
54262;BME280;40174;52.364;6.452;2023-04-03T03:46:06;102936.28;;;1.01;100.00
54262;BME280;40174;52.364;6.452;2023-04-03T03:48:32;102932.81;;;0.97;100.00
54262;BME280;40174;52.364;6.452;2023-04-03T03:51:01;102948.44;;;0.96;100.00
54262;BME280;40174;52.364;6.452;2023-04-03T03:53:32;102942.41;;;0.91;100.00
54262;BME280;40174;52.364;6.452;2023-04-03T03:56:03;102938.94;;;0.89;100.00
54262;BME280;40174;52.364;6.452;2023-04-03T03:58:31;102942.41;;;0.89;100.00
54262;BME280;40174;52.364;6.452;2023-04-03T04:00:59;102939.84;;;0.86;100.00
54262;BME280;40174;52.364;6.452;2023-04-03T04:03:26;102941.59;;;0.86;100.00
54262;BME280;40174;52.364;6.452;2023-04-03T04:05:53;102939.84;;;0.85;100.00
54262;BME280;40174;52.364;6.452;2023-04-03T04:08:21;102946.81;;;0.81;100.00
54262;BME280;40174;52.364;6.452;2023-04-03T04:10:47;102940.72;;;0.80;100.00
54262;BME280;40174;52.364;6.452;2023-04-03T04:13:16;102949.44;;;0.78;100.00
54262;BME280;40174;52.364;6.452;2023-04-03T04:15:43;102949.44;;;0.78;100.00
54262;BME280;40174;52.364;6.452;2023-04-03T04:18:10;102957.25;;;0.72;100.00
54262;BME280;40174;52.364;6.452;2023-04-03T04:20:37;102954.72;;;0.66;100.00
54262;BME280;40174;52.364;6.452;2023-04-03T04:23:03;102962.53;;;0.61;100.00
54262;BME280;40174;52.364;6.452;2023-04-03T04:25:31;102967.75;;;0.55;100.00
54262;BME280;40174;52.364;6.452;2023-04-03T04:27:58;102961.69;;;0.53;100.00
54262;BME280;40174;52.364;6.452;2023-04-03T04:30:25;102966.03;;;0.52;100.00
54262;BME280;40174;52.364;6.452;2023-04-03T04:32:53;102968.63;;;0.55;100.00
54262;BME280;40174;52.364;6.452;2023-04-03T04:35:20;102966.03;;;0.55;100.00
54262;BME280;40174;52.364;6.452;2023-04-03T04:37:49;102968.63;;;0.57;100.00
54262;BME280;40174;52.364;6.452;2023-04-03T04:40:16;102977.31;;;0.54;100.00
54262;BME280;40174;52.364;6.452;2023-04-03T04:42:44;102985.97;;;0.53;100.00
54262;BME280;40174;52.364;6.452;2023-04-03T04:45:11;102987.72;;;0.51;100.00
54262;BME280;40174;52.364;6.452;2023-04-03T04:47:39;102984.25;;;0.52;100.00
54262;BME280;40174;52.364;6.452;2023-04-03T04:50:06;102990.31;;;0.53;100.00
54262;BME280;40174;52.364;6.452;2023-04-03T04:52:33;102994.66;;;0.49;100.00
54262;BME280;40174;52.364;6.452;2023-04-03T04:54:59;102995.53;;;0.51;100.00
54262;BME280;40174;52.364;6.452;2023-04-03T04:57:26;102994.69;;;0.48;100.00
54262;BME280;40174;52.364;6.452;2023-04-03T04:59:55;102994.72;;;0.43;100.00
54262;BME280;40174;52.364;6.452;2023-04-03T05:02:21;102988.66;;;0.36;100.00
54262;BME280;40174;52.364;6.452;2023-04-03T05:04:48;102991.22;;;0.38;100.00
54262;BME280;40174;52.364;6.452;2023-04-03T05:07:19;102992.97;;;0.37;100.00
54262;BME280;40174;52.364;6.452;2023-04-03T05:09:46;102999.06;;;0.35;100.00
54262;BME280;40174;52.364;6.452;2023-04-03T05:12:15;102996.47;;;0.30;100.00
54262;BME280;40174;52.364;6.452;2023-04-03T05:14:48;102998.19;;;0.31;100.00
54262;BME280;40174;52.364;6.452;2023-04-03T05:17:16;102992.13;;;0.32;100.00
54262;BME280;40174;52.364;6.452;2023-04-03T05:19:48;103001.66;;;0.36;100.00
54262;BME280;40174;52.364;6.452;2023-04-03T05:22:16;103006.00;;;0.34;100.00
54262;BME280;40174;52.364;6.452;2023-04-03T05:24:43;103006.88;;;0.35;100.00
54262;BME280;40174;52.364;6.452;2023-04-03T05:27:10;103010.31;;;0.35;100.00
54262;BME280;40174;52.364;6.452;2023-04-03T05:29:40;103011.19;;;0.33;100.00
54262;BME280;40174;52.364;6.452;2023-04-03T05:32:09;103019.88;;;0.33;100.00
54262;BME280;40174;52.364;6.452;2023-04-03T05:34:37;103013.81;;;0.34;100.00
54262;BME280;40174;52.364;6.452;2023-04-03T05:37:04;103019.88;;;0.33;100.00
54262;BME280;40174;52.364;6.452;2023-04-03T05:39:30;103019.00;;;0.36;100.00
54262;BME280;40174;52.364;6.452;2023-04-03T05:41:58;103021.59;;;0.33;100.00
54262;BME280;40174;52.364;6.452;2023-04-03T05:44:25;103013.81;;;0.34;100.00
54262;BME280;40174;52.364;6.452;2023-04-03T05:46:53;103019.00;;;0.36;100.00
54262;BME280;40174;52.364;6.452;2023-04-03T05:49:20;103023.34;;;0.37;100.00
54262;BME280;40174;52.364;6.452;2023-04-03T05:51:48;103018.13;;;0.38;100.00
54262;BME280;40174;52.364;6.452;2023-04-03T05:54:21;103023.31;;;0.40;100.00
54262;BME280;40174;52.364;6.452;2023-04-03T05:56:51;103028.53;;;0.43;100.00
54262;BME280;40174;52.364;6.452;2023-04-03T05:59:19;103028.53;;;0.41;100.00
54262;BME280;40174;52.364;6.452;2023-04-03T06:01:48;103030.25;;;0.44;100.00
54262;BME280;40174;52.364;6.452;2023-04-03T06:04:15;103030.25;;;0.44;100.00
54262;BME280;40174;52.364;6.452;2023-04-03T06:06:43;103030.25;;;0.46;100.00
54262;BME280;40174;52.364;6.452;2023-04-03T06:09:10;103031.09;;;0.45;100.00
54262;BME280;40174;52.364;6.452;2023-04-03T06:11:37;103036.31;;;0.48;100.00
54262;BME280;40174;52.364;6.452;2023-04-03T06:14:04;103041.50;;;0.51;100.00
54262;BME280;40174;52.364;6.452;2023-04-03T06:16:30;103038.88;;;0.54;100.00
54262;BME280;40174;52.364;6.452;2023-04-03T06:18:58;103045.84;;;0.56;100.00
54262;BME280;40174;52.364;6.452;2023-04-03T06:21:25;103050.16;;;0.57;100.00
54262;BME280;40174;52.364;6.452;2023-04-03T06:23:51;103051.91;;;0.57;100.00
54262;BME280;40174;52.364;6.452;2023-04-03T06:26:19;103052.78;;;0.59;100.00
54262;BME280;40174;52.364;6.452;2023-04-03T06:28:46;103054.50;;;0.60;100.00
54262;BME280;40174;52.364;6.452;2023-04-03T06:31:12;103056.22;;;0.62;100.00
54262;BME280;40174;52.364;6.452;2023-04-03T06:33:38;103067.50;;;0.66;100.00
54262;BME280;40174;52.364;6.452;2023-04-03T06:36:05;103058.81;;;0.64;100.00
54262;BME280;40174;52.364;6.452;2023-04-03T06:38:33;103051.88;;;0.66;100.00
54262;BME280;40174;52.364;6.452;2023-04-03T06:40:59;103062.28;;;0.68;100.00
54262;BME280;40174;52.364;6.452;2023-04-03T06:43:27;103055.31;;;0.71;100.00
54262;BME280;40174;52.364;6.452;2023-04-03T06:45:54;103061.41;;;0.75;100.00
54262;BME280;40174;52.364;6.452;2023-04-03T06:48:20;103068.31;;;0.77;100.00
54262;BME280;40174;52.364;6.452;2023-04-03T06:50:47;103059.63;;;0.81;100.00
54262;BME280;40174;52.364;6.452;2023-04-03T06:53:13;103068.31;;;0.82;100.00
54262;BME280;40174;52.364;6.452;2023-04-03T06:55:41;103066.56;;;0.86;100.00
54262;BME280;40174;52.364;6.452;2023-04-03T06:58:08;103073.50;;;0.88;100.00
54262;BME280;40174;52.364;6.452;2023-04-03T07:00:35;103076.94;;;0.92;100.00
54262;BME280;40174;52.364;6.452;2023-04-03T07:03:02;103077.81;;;0.97;100.00
54262;BME280;40174;52.364;6.452;2023-04-03T07:05:28;103082.13;;;0.98;100.00
54262;BME280;40174;52.364;6.452;2023-04-03T07:07:55;103091.66;;;1.02;100.00
54262;BME280;40174;52.364;6.452;2023-04-03T07:10:22;103083.81;;;1.05;100.00
54262;BME280;40174;52.364;6.452;2023-04-03T07:12:48;103092.47;;;1.12;100.00
54262;BME280;40174;52.364;6.452;2023-04-03T07:15:15;103091.63;;;1.13;100.00
54262;BME280;40174;52.364;6.452;2023-04-03T07:17:45;103101.16;;;1.17;100.00
54262;BME280;40174;52.364;6.452;2023-04-03T07:20:11;103100.28;;;1.19;100.00
54262;BME280;40174;52.364;6.452;2023-04-03T07:22:38;103105.44;;;1.22;100.00
54262;BME280;40174;52.364;6.452;2023-04-03T07:25:05;103103.72;;;1.26;100.00
54262;BME280;40174;52.364;6.452;2023-04-03T07:27:32;103102.81;;;1.33;100.00
54262;BME280;40174;52.364;6.452;2023-04-03T07:29:59;103099.31;;;1.34;100.00
54262;BME280;40174;52.364;6.452;2023-04-03T07:32:26;103099.28;;;1.39;100.00
54262;BME280;40174;52.364;6.452;2023-04-03T07:34:53;103100.13;;;1.45;100.00
54262;BME280;40174;52.364;6.452;2023-04-03T07:37:20;103106.16;;;1.54;100.00
54262;BME280;40174;52.364;6.452;2023-04-03T07:39:47;103108.75;;;1.55;100.00
54262;BME280;40174;52.364;6.452;2023-04-03T07:42:13;103112.19;;;1.59;100.00
54262;BME280;40174;52.364;6.452;2023-04-03T07:44:40;103117.38;;;1.65;100.00
54262;BME280;40174;52.364;6.452;2023-04-03T07:47:06;103109.50;;;1.76;100.00
54262;BME280;40174;52.364;6.452;2023-04-03T07:49:33;103118.16;;;1.78;100.00
54262;BME280;40174;52.364;6.452;2023-04-03T07:52:04;103111.19;;;1.81;100.00
54262;BME280;40174;52.364;6.452;2023-04-03T07:54:32;103116.31;;;1.95;100.00
54262;BME280;40174;52.364;6.452;2023-04-03T07:56:58;103117.16;;;1.96;100.00
54262;BME280;40174;52.364;6.452;2023-04-03T07:59:25;103123.22;;;2.01;100.00
54262;BME280;40174;52.364;6.452;2023-04-03T08:01:51;103125.78;;;2.05;99.00
54262;BME280;40174;52.364;6.452;2023-04-03T08:04:18;103124.84;;;2.14;97.09
54262;BME280;40174;52.364;6.452;2023-04-03T08:06:44;103126.56;;;2.17;97.08
54262;BME280;40174;52.364;6.452;2023-04-03T08:09:12;103126.50;;;2.23;95.45
54262;BME280;40174;52.364;6.452;2023-04-03T08:11:39;103122.97;;;2.30;93.61
54262;BME280;40174;52.364;6.452;2023-04-03T08:14:06;103131.59;;;2.35;93.36
54262;BME280;40174;52.364;6.452;2023-04-03T08:16:32;103134.13;;;2.46;92.60
54262;BME280;40174;52.364;6.452;2023-04-03T08:18:59;103137.44;;;2.62;90.45
54262;BME280;40174;52.364;6.452;2023-04-03T08:21:25;103145.16;;;2.74;89.57
54262;BME280;40174;52.364;6.452;2023-04-03T08:23:51;103144.16;;;2.86;85.54
54262;BME280;40174;52.364;6.452;2023-04-03T08:26:20;103135.34;;;2.95;85.17
54262;BME280;40174;52.364;6.452;2023-04-03T08:28:47;103149.97;;;3.12;82.24
54262;BME280;40174;52.364;6.452;2023-04-03T08:31:15;103143.84;;;3.13;81.30
54262;BME280;40174;52.364;6.452;2023-04-03T08:33:42;103147.28;;;3.17;80.22
54262;BME280;40174;52.364;6.452;2023-04-03T08:36:15;103146.19;;;3.33;79.57
54262;BME280;40174;52.364;6.452;2023-04-03T08:38:42;103146.00;;;3.50;77.69
54262;BME280;40174;52.364;6.452;2023-04-03T08:41:11;103141.41;;;3.65;76.64
54262;BME280;40174;52.364;6.452;2023-04-03T08:43:44;103146.44;;;3.79;74.81
54262;BME280;40174;52.364;6.452;2023-04-03T08:46:14;103145.44;;;3.89;73.12
54262;BME280;40174;52.364;6.452;2023-04-03T08:48:43;103148.53;;;4.12;69.66
54262;BME280;40174;52.364;6.452;2023-04-03T08:51:10;103140.66;;;4.14;69.20
54262;BME280;40174;52.364;6.452;2023-04-03T08:53:40;103140.47;;;4.26;71.15
54262;BME280;40174;52.364;6.452;2023-04-03T08:56:08;103136.84;;;4.35;71.78
54262;BME280;40174;52.364;6.452;2023-04-03T08:58:36;103142.63;;;4.52;70.76
54262;BME280;40174;52.364;6.452;2023-04-03T09:01:10;103139.63;;;4.72;69.31
54262;BME280;40174;52.364;6.452;2023-04-03T09:03:42;103143.03;;;4.77;67.83
54262;BME280;40174;52.364;6.452;2023-04-03T09:06:11;103135.84;;;4.89;68.41
54262;BME280;40174;52.364;6.452;2023-04-03T09:08:40;103144.25;;;5.05;63.78
54262;BME280;40174;52.364;6.452;2023-04-03T09:11:12;103140.56;;;5.13;60.66
54262;BME280;40174;52.364;6.452;2023-04-03T09:13:43;103129.94;;;5.21;60.94
54262;BME280;40174;52.364;6.452;2023-04-03T09:16:17;103142.66;;;5.38;62.79
54262;BME280;40174;52.364;6.452;2023-04-03T09:18:48;103144.94;;;5.55;59.70
54262;BME280;40174;52.364;6.452;2023-04-03T09:21:21;103147.25;;;5.69;58.51
54262;BME280;40174;52.364;6.452;2023-04-03T09:23:51;103139.13;;;5.79;55.11
54262;BME280;40174;52.364;6.452;2023-04-03T09:26:19;103145.91;;;5.90;54.94
54262;BME280;40174;52.364;6.452;2023-04-03T09:28:47;103148.94;;;6.10;55.48
54262;BME280;40174;52.364;6.452;2023-04-03T09:31:18;103144.22;;;6.23;54.72
54262;BME280;40174;52.364;6.452;2023-04-03T09:33:45;103141.41;;;6.31;53.82
54262;BME280;40174;52.364;6.452;2023-04-03T09:36:12;103144.47;;;6.48;56.68
54262;BME280;40174;52.364;6.452;2023-04-03T09:38:38;103146.66;;;6.63;54.41
54262;BME280;40174;52.364;6.452;2023-04-03T09:41:06;103141.28;;;6.68;50.29
54262;BME280;40174;52.364;6.452;2023-04-03T09:43:33;103143.44;;;6.86;49.85
54262;BME280;40174;52.364;6.452;2023-04-03T09:46:19;103132.50;;;7.02;50.98
54262;BME280;40174;52.364;6.452;2023-04-03T09:48:50;103139.06;;;7.17;48.20
54262;BME280;40174;52.364;6.452;2023-04-03T09:51:17;103131.81;;;7.25;47.78
54262;BME280;40174;52.364;6.452;2023-04-03T09:53:44;103131.34;;;7.40;47.82
54262;BME280;40174;52.364;6.452;2023-04-03T09:56:18;103133.72;;;7.49;46.60
54262;BME280;40174;52.364;6.452;2023-04-03T09:58:47;103129.59;;;7.69;49.23
54262;BME280;40174;52.364;6.452;2023-04-03T10:01:22;103127.22;;;7.88;48.16
54262;BME280;40174;52.364;6.452;2023-04-03T10:04:01;103122.94;;;8.12;49.13
54262;BME280;40174;52.364;6.452;2023-04-03T10:06:29;103131.91;;;8.31;47.23
54262;BME280;40174;52.364;6.452;2023-04-03T10:08:58;103118.66;;;8.35;45.25
54262;BME280;40174;52.364;6.452;2023-04-03T10:11:24;103118.41;;;8.42;45.93
54262;BME280;40174;52.364;6.452;2023-04-03T10:13:53;103128.69;;;8.50;43.97
54262;BME280;40174;52.364;6.452;2023-04-03T10:16:22;103132.63;;;8.63;44.99
54262;BME280;40174;52.364;6.452;2023-04-03T10:24:10;103110.97;;;9.02;46.54
54262;BME280;40174;52.364;6.452;2023-04-03T10:26:39;103112.66;;;9.05;44.00
54262;BME280;40174;52.364;6.452;2023-04-03T10:29:10;103106.97;;;9.15;44.01
54262;BME280;40174;52.364;6.452;2023-04-03T10:31:43;103113.25;;;9.35;45.71
54262;BME280;40174;52.364;6.452;2023-04-03T10:53:10;103095.56;;;10.24;40.64
54262;BME280;40174;52.364;6.452;2023-04-03T10:55:41;103097.13;;;10.29;41.82
54262;BME280;40174;52.364;6.452;2023-04-03T10:58:10;103089.69;;;10.37;42.25
54262;BME280;40174;52.364;6.452;2023-04-03T11:00:41;103091.41;;;10.59;41.95
54262;BME280;40174;52.364;6.452;2023-04-03T11:03:10;103088.00;;;10.76;42.09
54262;BME280;40174;52.364;6.452;2023-04-03T11:05:40;103094.81;;;10.81;40.80
54262;BME280;40174;52.364;6.452;2023-04-03T11:08:12;103091.09;;;10.86;41.44
54262;BME280;40174;52.364;6.452;2023-04-03T11:10:41;103080.88;;;10.97;40.76
54262;BME280;40174;52.364;6.452;2023-04-03T11:13:08;103073.94;;;11.13;42.22
54262;BME280;40174;52.364;6.452;2023-04-03T11:15:38;103086.59;;;11.07;40.25
54262;BME280;40174;52.364;6.452;2023-04-03T11:18:06;103077.09;;;11.21;40.41
54262;BME280;40174;52.364;6.452;2023-04-03T11:20:35;103086.88;;;11.19;40.00
54262;BME280;40174;52.364;6.452;2023-04-03T11:23:04;103068.84;;;11.28;39.84
54262;BME280;40174;52.364;6.452;2023-04-03T11:25:33;103079.91;;;11.36;39.50
54262;BME280;40174;52.364;6.452;2023-04-03T11:28:03;103080.00;;;11.34;39.39
54262;BME280;40174;52.364;6.452;2023-04-03T11:30:30;103079.84;;;11.37;39.97
54262;BME280;40174;52.364;6.452;2023-04-03T11:33:17;103067.19;;;11.44;40.46
54262;BME280;40174;52.364;6.452;2023-04-03T11:35:47;103066.66;;;11.55;40.16
54262;BME280;40174;52.364;6.452;2023-04-03T11:38:17;103057.63;;;11.59;39.18
54262;BME280;40174;52.364;6.452;2023-04-03T11:40:47;103042.91;;;11.53;38.33
54262;BME280;40174;52.364;6.452;2023-04-03T11:43:24;103045.72;;;11.68;38.67
54262;BME280;40174;52.364;6.452;2023-04-03T11:45:55;103050.19;;;11.84;39.84
54262;BME280;40174;52.364;6.452;2023-04-03T11:48:44;103041.84;;;12.10;40.08
54262;BME280;40174;52.364;6.452;2023-04-03T11:53:59;103047.16;;;12.27;38.10
54262;BME280;40174;52.364;6.452;2023-04-03T11:56:47;103045.34;;;12.27;39.07
54262;BME280;40174;52.364;6.452;2023-04-03T11:59:23;103052.28;;;12.30;38.60
54262;BME280;40174;52.364;6.452;2023-04-03T12:01:51;103046.19;;;12.28;38.06
54262;BME280;40174;52.364;6.452;2023-04-03T12:04:18;103046.06;;;12.31;38.32
54262;BME280;40174;52.364;6.452;2023-04-03T12:06:49;103046.50;;;12.39;39.81
54262;BME280;40174;52.364;6.452;2023-04-03T12:09:22;103039.91;;;12.46;38.88
54262;BME280;40174;52.364;6.452;2023-04-03T12:11:51;103044.81;;;12.54;37.77
54262;BME280;40174;52.364;6.452;2023-04-03T12:14:17;103036.69;;;12.57;37.97
54262;BME280;40174;52.364;6.452;2023-04-03T12:16:44;103031.22;;;12.44;38.96
54262;BME280;40174;52.364;6.452;2023-04-03T12:19:34;103026.66;;;12.46;38.92
54262;BME280;40174;52.364;6.452;2023-04-03T12:22:11;103024.00;;;12.46;37.71
54262;BME280;40174;52.364;6.452;2023-04-03T12:24:38;103033.38;;;12.69;38.96
54262;BME280;40174;52.364;6.452;2023-04-03T12:27:13;103033.47;;;12.84;36.88
54262;BME280;40174;52.364;6.452;2023-04-03T12:29:43;103029.03;;;12.84;36.85
54262;BME280;40174;52.364;6.452;2023-04-03T12:32:14;103024.59;;;13.01;37.52
54262;BME280;40174;52.364;6.452;2023-04-03T12:34:49;103021.84;;;13.02;37.47
54262;BME280;40174;52.364;6.452;2023-04-03T12:37:22;103022.78;;;12.85;36.04
54262;BME280;40174;52.364;6.452;2023-04-03T12:39:52;103023.75;;;13.16;36.33
54262;BME280;40174;52.364;6.452;2023-04-03T12:42:26;103015.31;;;13.24;37.73
54262;BME280;40174;52.364;6.452;2023-04-03T12:44:56;103005.75;;;13.21;36.03
54262;BME280;40174;52.364;6.452;2023-04-03T12:47:27;103012.09;;;13.19;35.41
54262;BME280;40174;52.364;6.452;2023-04-03T12:49:54;103009.25;;;13.22;36.24
54262;BME280;40174;52.364;6.452;2023-04-03T12:52:35;103008.66;;;13.33;36.74
54262;BME280;40174;52.364;6.452;2023-04-03T12:55:07;102992.53;;;13.36;36.61
54262;BME280;40174;52.364;6.452;2023-04-03T12:57:44;102993.59;;;13.33;35.61
54262;BME280;40174;52.364;6.452;2023-04-03T13:00:28;102996.16;;;13.19;35.04
54262;BME280;40174;52.364;6.452;2023-04-03T13:02:55;102987.31;;;13.18;35.40
54262;BME280;40174;52.364;6.452;2023-04-03T13:05:22;102982.78;;;13.36;36.72
54262;BME280;40174;52.364;6.452;2023-04-03T13:07:49;102987.16;;;13.37;36.33
54262;BME280;40174;52.364;6.452;2023-04-03T13:10:18;102977.78;;;13.46;37.37
54262;BME280;40174;52.364;6.452;2023-04-03T13:12:47;102972.28;;;13.49;37.14
54262;BME280;40174;52.364;6.452;2023-04-03T13:15:15;102969.56;;;13.50;36.59
54262;BME280;40174;52.364;6.452;2023-04-03T13:17:43;102971.38;;;13.50;36.32
54262;BME280;40174;52.364;6.452;2023-04-03T13:20:10;102966.19;;;13.33;36.29
54262;BME280;40174;52.364;6.452;2023-04-03T13:22:38;102973.59;;;13.42;36.27
54262;BME280;40174;52.364;6.452;2023-04-03T13:25:09;102978.22;;;13.38;37.28
54262;BME280;40174;52.364;6.452;2023-04-03T13:27:37;102966.81;;;13.52;37.33
54262;BME280;40174;52.364;6.452;2023-04-03T13:30:06;102968.03;;;13.61;36.63